Time;durP1;ratioP1;P1;durP2;ratioP2;P2;SDS_P1;SDS_P2;PMS_P1;PMS_P2;Temp;Humidity;BMP_temperature;BMP_pressure;BME280_temperature;BME280_humidity;BME280_pressure;Samples;Min_cycle;Max_cycle;Signal;HPM_P1;HPM_P2
2021/11/10 00:02:15;;;;;;;10.70;5.57;;;;;;;4.24;100.00;101788.50;5184697;28;20491;-80
2021/11/10 00:04:46;;;;;;;10.68;5.15;;;;;;;4.06;100.00;101782.28;5190588;28;20108;-79
2021/11/10 00:07:17;;;;;;;11.77;4.95;;;;;;;4.12;100.00;101772.88;5184384;28;20033;-79
2021/11/10 00:09:47;;;;;;;10.07;5.10;;;;;;;4.18;100.00;101772.94;5187701;28;20156;-79
2021/11/10 00:12:17;;;;;;;10.18;5.00;;;;;;;4.24;100.00;101782.47;5186529;28;20021;-79
2021/11/10 00:14:47;;;;;;;9.73;4.95;;;;;;;4.17;100.00;101776.38;5184667;28;20081;-79
2021/11/10 00:17:18;;;;;;;13.30;5.20;;;;;;;4.08;100.00;101776.28;5193897;28;20033;-79
2021/11/10 00:19:49;;;;;;;8.68;4.80;;;;;;;3.96;100.00;101773.56;5186769;28;20021;-79
2021/11/10 00:22:19;;;;;;;10.80;5.07;;;;;;;4.02;100.00;101773.66;5197885;28;20464;-79
2021/11/10 00:24:49;;;;;;;11.75;5.43;;;;;;;3.95;100.00;101779.59;5189664;28;20029;-79
2021/11/10 00:27:21;;;;;;;11.82;5.68;;;;;;;3.90;100.00;101763.19;5196171;28;20403;-79
2021/11/10 00:29:52;;;;;;;12.35;5.75;;;;;;;3.98;100.00;101766.69;5182229;28;20025;-79
2021/11/10 00:32:23;;;;;;;8.50;5.47;;;;;;;3.91;100.00;101764.91;5190749;28;20029;-79
2021/11/10 00:34:53;;;;;;;13.73;5.72;;;;;;;3.98;100.00;101764.09;5183948;28;20167;-79
2021/11/10 00:37:24;;;;;;;11.00;5.65;;;;;;;3.95;100.00;101774.41;5185937;28;20498;-79
2021/11/10 00:39:54;;;;;;;11.25;5.78;;;;;;;3.95;100.00;101771.00;5191167;28;20025;-79
2021/11/10 00:42:24;;;;;;;11.32;6.07;;;;;;;3.85;100.00;101770.03;5184983;28;20053;-79
2021/11/10 00:44:54;;;;;;;14.27;5.53;;;;;;;3.74;100.00;101766.44;5181157;28;20446;-80
2021/11/10 00:47:25;;;;;;;9.15;4.90;;;;;;;3.79;100.00;101759.59;5186293;28;20424;-79
2021/11/10 00:49:55;;;;;;;12.45;6.55;;;;;;;3.97;100.00;101759.78;5189411;28;20029;-79
2021/11/10 00:52:25;;;;;;;13.18;6.43;;;;;;;4.03;100.00;101754.69;5190039;28;20029;-79
2021/11/10 00:54:56;;;;;;;14.52;6.38;;;;;;;3.98;100.00;101755.50;5187946;28;20071;-78
2021/11/10 00:57:26;;;;;;;12.18;6.15;;;;;;;3.89;100.00;101751.09;5192415;28;20021;-79
2021/11/10 00:59:57;;;;;;;12.93;6.32;;;;;;;3.88;100.00;101746.78;5186704;28;20042;-79
2021/11/10 01:02:27;;;;;;;16.95;6.40;;;;;;;4.01;100.00;101747.75;5186370;28;20088;-79
2021/11/10 01:04:57;;;;;;;11.90;6.63;;;;;;;3.93;100.00;101739.06;5191660;28;20114;-79
2021/11/10 01:07:27;;;;;;;12.90;6.13;;;;;;;3.79;100.00;101741.50;5191847;28;20026;-79
2021/11/10 01:10:00;;;;;;;12.55;5.75;;;;;;;3.79;100.00;101740.66;5177992;28;20392;-80
2021/11/10 01:12:31;;;;;;;11.65;6.32;;;;;;;3.81;100.00;101739.78;5178268;28;20049;-80
2021/11/10 01:15:02;;;;;;;13.23;6.82;;;;;;;3.83;100.00;101732.94;5181717;28;20033;-79
2021/11/10 01:17:33;;;;;;;14.57;6.72;;;;;;;3.88;100.00;101728.69;5187987;28;20458;-79
2021/11/10 01:20:05;;;;;;;12.10;7.18;;;;;;;3.85;100.00;101731.25;5188504;28;20025;-80
2021/11/10 01:22:36;;;;;;;17.23;7.20;;;;;;;3.83;100.00;101726.91;5183979;28;20037;-79
2021/11/10 01:25:08;;;;;;;12.18;6.20;;;;;;;3.81;100.00;101732.03;5190506;28;20414;-79
2021/11/10 01:27:38;;;;;;;16.08;6.85;;;;;;;3.75;100.00;101724.22;5188191;28;20029;-79
2021/11/10 01:30:10;;;;;;;15.63;7.20;;;;;;;3.80;100.00;101716.53;5185117;28;20404;-79
2021/11/10 01:32:41;;;;;;;16.02;7.10;;;;;;;3.81;100.00;101713.94;5191347;28;20049;-79
2021/11/10 01:35:12;;;;;;;14.88;7.25;;;;;;;3.81;100.00;101713.94;5187878;28;20025;-79
2021/11/10 01:37:42;;;;;;;13.75;6.32;;;;;;;3.83;100.00;101709.69;5191009;28;20029;-79
2021/11/10 01:40:16;;;;;;;13.68;6.65;;;;;;;3.84;100.00;101707.94;5189089;28;20026;-79
2021/11/10 01:42:47;;;;;;;16.05;7.07;;;;;;;3.79;100.00;101699.28;5188419;28;20021;-79
2021/11/10 01:45:19;;;;;;;15.60;7.35;;;;;;;3.75;100.00;101698.38;5185764;28;20455;-79
2021/11/10 01:47:49;;;;;;;13.25;6.20;;;;;;;3.75;100.00;101698.38;5189388;28;20072;-79
2021/11/10 01:50:19;;;;;;;19.23;7.35;;;;;;;3.72;100.00;101690.59;5189706;28;20057;-79
2021/11/10 01:52:50;;;;;;;12.93;6.53;;;;;;;3.60;100.00;101690.47;5190549;28;20036;-79
2021/11/10 01:55:20;;;;;;;12.45;6.78;;;;;;;3.60;100.00;101687.88;5191654;28;20117;-79
2021/11/10 01:57:50;;;;;;;14.68;7.07;;;;;;;3.43;100.00;101692.88;5191178;28;20116;-79
2021/11/10 02:00:27;;;;;;;16.17;6.82;;;;;;;3.36;100.00;101675.56;5189669;28;20057;-79
2021/11/10 02:02:58;;;;;;;12.95;6.75;;;;;;;3.36;100.00;101676.44;5192469;28;20026;-79
2021/11/10 02:05:29;;;;;;;12.73;6.75;;;;;;;3.31;100.00;101669.47;5193909;28;20092;-79
2021/11/10 02:08:00;;;;;;;17.42;6.75;;;;;;;3.25;100.00;101669.41;5192313;28;20085;-80
2021/11/10 02:10:30;;;;;;;17.48;6.57;;;;;;;3.20;100.00;101661.59;5194366;28;20049;-79
2021/11/10 02:13:00;;;;;;;13.93;6.53;;;;;;;3.22;100.00;101666.81;5189879;28;20082;-79
2021/11/10 02:15:31;;;;;;;15.45;7.07;;;;;;;3.25;100.00;101677.16;5190954;28;20033;-79
2021/11/10 02:18:02;;;;;;;11.65;6.50;;;;;;;3.37;100.00;101666.97;5191241;28;20029;-79
2021/11/10 02:20:35;;;;;;;12.68;6.70;;;;;;;3.42;100.00;101675.63;5194616;28;20112;-79
2021/11/10 02:23:07;;;;;;;14.00;7.28;;;;;;;3.45;100.00;101661.03;5190223;28;20030;-79
2021/11/10 02:25:39;;;;;;;13.85;6.95;;;;;;;3.32;100.00;101660.88;5186556;28;20026;-79
2021/11/10 02:28:09;;;;;;;13.60;6.65;;;;;;;3.21;100.00;101662.50;5190601;28;20041;-80
2021/11/10 02:30:39;;;;;;;12.55;6.28;;;;;;;3.05;100.00;101663.16;5191092;28;20025;-79
2021/11/10 02:33:10;;;;;;;14.85;6.57;;;;;;;3.08;100.00;101655.44;5190897;28;20108;-80
2021/11/10 02:35:41;;;;;;;14.57;6.78;;;;;;;2.95;100.00;101654.44;5193357;28;20047;-80
2021/11/10 02:38:13;;;;;;;13.23;6.63;;;;;;;2.97;100.00;101650.16;5191372;28;20033;-80
2021/11/10 02:40:43;;;;;;;15.02;6.78;;;;;;;3.03;100.00;101654.53;5193470;28;20064;-79
2021/11/10 02:43:13;;;;;;;13.60;6.60;;;;;;;2.95;100.00;101643.22;5189488;28;20084;-79
2021/11/10 02:45:44;;;;;;;15.38;6.50;;;;;;;2.93;100.00;101632.03;5188965;28;20108;-80
2021/11/10 02:48:15;;;;;;;13.88;6.50;;;;;;;2.78;100.00;101626.66;5191147;28;20116;-79
2021/11/10 02:50:45;;;;;;;13.73;6.80;;;;;;;2.74;100.00;101622.31;5193211;28;20044;-79
2021/11/10 02:53:17;;;;;;;12.13;6.03;;;;;;;2.86;100.00;101631.06;5191152;28;20026;-79
2021/11/10 02:55:47;;;;;;;15.00;7.15;;;;;;;2.85;100.00;101628.50;5191964;28;20044;-79
2021/11/10 02:58:18;;;;;;;12.50;6.57;;;;;;;2.80;100.00;101619.81;5189396;28;20508;-79
2021/11/10 03:00:48;;;;;;;13.75;7.00;;;;;;;2.78;100.00;101627.53;5189513;28;20056;-79
2021/11/10 03:03:18;;;;;;;12.50;6.57;;;;;;;2.78;100.00;101631.81;5190959;28;20437;-79
2021/11/10 03:05:49;;;;;;;12.63;6.47;;;;;;;2.68;100.00;101637.75;5191930;28;20048;-79
2021/11/10 03:08:20;;;;;;;12.40;6.38;;;;;;;2.70;100.00;101638.63;5192657;28;20575;-79
2021/11/10 03:10:51;;;;;;;14.73;6.65;;;;;;;2.70;100.00;101641.19;5192150;28;20033;-78
2021/11/10 03:13:22;;;;;;;12.15;6.97;;;;;;;2.74;100.00;101630.06;5191219;28;20025;-79
2021/11/10 03:15:52;;;;;;;13.27;6.97;;;;;;;2.77;100.00;101624.94;5188336;28;20387;-78
2021/11/10 03:18:22;;;;;;;14.10;6.18;;;;;;;2.77;100.00;101624.94;5193531;28;20097;-78
2021/11/10 03:20:53;;;;;;;17.27;6.80;;;;;;;2.85;100.00;101628.50;5192445;28;20029;-78
2021/11/10 03:23:23;;;;;;;13.10;6.38;;;;;;;2.72;100.00;101629.19;5193109;28;20036;-79
2021/11/10 03:25:53;;;;;;;11.80;5.95;;;;;;;2.70;100.00;101638.63;5190146;28;20037;-79
2021/11/10 03:28:23;;;;;;;11.65;5.78;;;;;;;2.62;100.00;101640.22;5190756;28;20044;-79
2021/11/10 03:30:54;;;;;;;12.77;6.07;;;;;;;2.62;100.00;101645.38;5189473;28;20091;-78
2021/11/10 03:33:24;;;;;;;13.70;6.25;;;;;;;2.60;100.00;101641.91;5192632;28;20117;-78
2021/11/10 03:35:54;;;;;;;11.45;6.05;;;;;;;2.66;100.00;101642.00;5191863;28;20372;-79
2021/11/10 03:38:24;;;;;;;11.32;5.70;;;;;;;2.58;100.00;101653.94;5192311;28;20715;-78
2021/11/10 03:40:55;;;;;;;15.57;6.15;;;;;;;2.59;100.00;101640.19;5190462;28;20049;-78
2021/11/10 03:43:26;;;;;;;12.35;5.80;;;;;;;2.45;100.00;101649.44;5190706;28;20029;-80
2021/11/10 03:45:56;;;;;;;11.93;5.75;;;;;;;2.61;100.00;101659.13;5187745;28;20041;-78
2021/11/10 03:48:26;;;;;;;12.32;6.03;;;;;;;2.49;100.00;101657.25;5192773;28;20028;-79
2021/11/10 03:50:57;;;;;;;9.93;5.32;;;;;;;2.60;100.00;101653.13;5189982;28;20034;-78
2021/11/10 03:53:27;;;;;;;12.45;6.10;;;;;;;2.55;100.00;101641.00;5193035;28;20025;-78
2021/11/10 03:55:58;;;;;;;13.63;5.90;;;;;;;2.49;100.00;101654.66;5190210;28;20029;-78
2021/11/10 03:58:28;;;;;;;10.75;5.07;;;;;;;2.42;100.00;101646.81;5207334;22;20041;-78
2021/11/10 04:01:00;;;;;;;11.20;5.45;;;;;;;2.43;100.00;101657.19;5190509;28;20032;-79
2021/11/10 04:03:31;;;;;;;10.27;5.55;;;;;;;2.53;100.00;101648.69;5197078;28;20359;-78
2021/11/10 04:06:01;;;;;;;14.63;5.20;;;;;;;2.47;100.00;101655.50;5201176;28;20033;-77
2021/11/10 04:08:32;;;;;;;9.75;4.95;;;;;;;2.38;100.00;101656.25;5198635;28;20072;-78
2021/11/10 04:11:03;;;;;;;10.07;4.93;;;;;;;2.41;100.00;101650.25;5201409;28;20040;-78
2021/11/10 04:13:34;;;;;;;13.35;5.57;;;;;;;2.23;100.00;101649.97;5198030;28;20072;-78
2021/11/10 04:16:05;;;;;;;10.15;5.05;;;;;;;2.19;100.00;101658.53;5196238;28;20460;-78
2021/11/10 04:18:35;;;;;;;10.63;5.50;;;;;;;2.30;100.00;101649.25;5203205;28;20037;-78
2021/11/10 04:21:06;;;;;;;9.75;5.45;;;;;;;2.25;100.00;101656.91;5195877;28;20025;-78
2021/11/10 04:23:36;;;;;;;13.38;5.60;;;;;;;2.33;100.00;101652.72;5202286;28;20036;-79
2021/11/10 04:26:06;;;;;;;10.15;5.28;;;;;;;2.17;100.00;101655.06;5194450;28;20022;-78
2021/11/10 04:28:37;;;;;;;10.20;5.53;;;;;;;2.20;100.00;101660.25;5197371;28;20036;-78
2021/11/10 04:31:07;;;;;;;13.32;5.50;;;;;;;2.48;100.00;101652.94;5196461;28;20029;-78
2021/11/10 04:33:38;;;;;;;11.40;5.90;;;;;;;2.19;100.00;101648.22;5202123;28;20152;-79
2021/11/10 04:36:09;;;;;;;10.13;5.32;;;;;;;2.20;100.00;101655.09;5198934;28;20048;-78
2021/11/10 04:38:40;;;;;;;8.77;4.95;;;;;;;2.26;100.00;101650.03;5201928;28;20457;-78
2021/11/10 04:41:11;;;;;;;9.48;5.13;;;;;;;2.18;100.00;101638.75;5198389;28;20044;-78
2021/11/10 04:43:41;;;;;;;12.45;5.85;;;;;;;2.15;100.00;101641.28;5197115;28;20034;-78
2021/11/10 04:49:04;;;;;;;12.30;6.07;;;;;;;2.10;100.00;101627.44;5199126;28;20600;-79
2021/11/10 04:51:34;;;;;;;12.00;6.13;;;;;;;2.15;100.00;101625.81;5203181;28;20036;-78
2021/11/10 04:54:08;;;;;;;10.63;5.25;;;;;;;2.22;100.00;101623.34;5199067;28;20030;-78
2021/11/10 04:56:39;;;;;;;11.30;5.60;;;;;;;2.11;100.00;101618.84;5195871;28;20054;-78
2021/11/10 04:59:10;;;;;;;11.18;5.80;;;;;;;2.23;100.00;101621.63;5199233;28;20048;-78
2021/11/10 05:01:44;;;;;;;11.75;6.18;;;;;;;2.16;100.00;101627.53;5202174;28;20030;-79
2021/11/10 05:04:14;;;;;;;12.27;5.90;;;;;;;2.12;100.00;101620.56;5200707;28;20018;-79
2021/11/10 05:06:44;;;;;;;10.52;5.95;;;;;;;2.09;100.00;101616.25;5200300;28;20700;-78
2021/11/10 05:09:14;;;;;;;12.95;6.20;;;;;;;2.12;100.00;101618.00;5197651;28;20022;-78
2021/11/10 05:11:45;;;;;;;11.60;5.78;;;;;;;2.21;100.00;101623.31;5198187;28;20029;-79
2021/11/10 05:14:15;;;;;;;11.95;5.63;;;;;;;2.26;100.00;101619.06;5194050;28;20041;-78
2021/11/10 05:16:45;;;;;;;9.60;5.25;;;;;;;2.09;100.00;101625.69;5196012;28;20746;-78
2021/11/10 05:19:16;;;;;;;11.02;5.60;;;;;;;2.10;100.00;101620.56;5197187;28;20030;-78
2021/11/10 05:21:46;;;;;;;8.55;5.18;;;;;;;2.13;100.00;101617.19;5198593;28;20037;-78
2021/11/10 05:24:17;;;;;;;13.80;5.95;;;;;;;2.10;100.00;101614.53;5197426;28;20028;-79
2021/11/10 05:26:48;;;;;;;10.32;5.47;;;;;;;1.96;100.00;101613.50;5192171;28;20034;-78
2021/11/10 05:29:19;;;;;;;13.20;6.13;;;;;;;2.02;100.00;101608.41;5186728;28;20113;-78
2021/11/10 05:31:49;;;;;;;10.85;5.78;;;;;;;1.83;100.00;101611.56;5198909;28;20085;-78
2021/11/10 05:34:19;;;;;;;9.55;5.43;;;;;;;1.77;100.00;101605.44;5202894;28;20021;-77
2021/11/10 05:36:50;;;;;;;12.73;5.70;;;;;;;1.94;100.00;101597.97;5202793;28;20059;-78
2021/11/10 05:39:20;;;;;;;10.05;5.38;;;;;;;1.91;100.00;101609.94;5202550;28;20048;-78
2021/11/10 05:41:51;;;;;;;11.60;5.45;;;;;;;2.08;100.00;101595.59;5203968;28;20036;-78
2021/11/10 05:44:21;;;;;;;11.00;5.68;;;;;;;2.21;100.00;101595.81;5199821;28;20030;-80
2021/11/10 05:46:51;;;;;;;9.20;5.07;;;;;;;2.25;100.00;101592.44;5206998;28;20036;-80
2021/11/10 05:49:22;;;;;;;11.05;5.32;;;;;;;2.21;100.00;101584.63;5204603;28;20034;-78
2021/11/10 05:51:52;;;;;;;10.55;5.20;;;;;;;1.96;100.00;101586.00;5201196;28;20029;-78
2021/11/10 05:54:22;;;;;;;9.43;5.30;;;;;;;1.97;100.00;101584.28;5202124;28;20026;-79
2021/11/10 05:56:53;;;;;;;10.57;5.30;;;;;;;1.91;100.00;101579.91;5202214;28;20059;-79
2021/11/10 05:59:23;;;;;;;10.30;4.93;;;;;;;1.76;100.00;101578.78;5199377;28;20097;-78
2021/11/10 06:01:53;;;;;;;12.23;4.80;;;;;;;1.69;100.00;101587.28;5201677;28;20045;-79
2021/11/10 06:04:24;;;;;;;11.00;5.30;;;;;;;1.82;100.00;101589.22;5203274;28;20987;-78
2021/11/10 06:06:54;;;;;;;11.48;4.85;;;;;;;1.75;100.00;101583.94;5203144;28;20041;-78
2021/11/10 06:09:24;;;;;;;10.05;4.78;;;;;;;1.78;100.00;101585.72;5199413;28;20049;-78
2021/11/10 06:11:55;;;;;;;10.57;5.25;;;;;;;1.73;100.00;101573.59;5198598;28;20172;-78
2021/11/10 06:14:25;;;;;;;9.15;4.72;;;;;;;1.79;100.00;101582.28;5195280;28;20080;-79
2021/11/10 06:16:56;;;;;;;9.50;4.47;;;;;;;1.84;100.00;101577.22;5197582;28;20117;-78
2021/11/10 06:19:26;;;;;;;11.57;5.00;;;;;;;1.81;100.00;101570.28;5203614;28;20031;-78
2021/11/10 06:21:57;;;;;;;9.10;4.43;;;;;;;1.74;100.00;101566.75;5203572;28;20113;-78
2021/11/10 06:24:27;;;;;;;9.85;4.60;;;;;;;1.60;100.00;101569.06;5205969;28;20036;-78
2021/11/10 06:26:57;;;;;;;8.85;4.28;;;;;;;1.63;100.00;101569.16;5205640;28;20486;-78
2021/11/10 06:29:28;;;;;;;10.35;4.07;;;;;;;1.74;100.00;101595.94;5203289;28;20029;-80
2021/11/10 06:31:58;;;;;;;10.82;4.68;;;;;;;1.56;100.00;101598.22;5204685;28;20037;-79
2021/11/10 06:34:29;;;;;;;9.20;4.07;;;;;;;1.85;100.00;101615.88;5197039;28;20022;-78
2021/11/10 06:36:59;;;;;;;9.52;4.00;;;;;;;1.86;100.00;101604.72;5196747;28;20037;-79
2021/11/10 06:39:30;;;;;;;12.02;4.63;;;;;;;1.75;100.00;101622.56;5203385;28;20097;-78
2021/11/10 06:42:00;;;;;;;8.35;4.13;;;;;;;1.61;100.00;101619.75;5201924;28;20621;-78
2021/11/10 06:44:30;;;;;;;8.32;4.13;;;;;;;1.78;100.00;101633.78;5199801;28;20476;-79
2021/11/10 06:47:01;;;;;;;8.55;4.15;;;;;;;1.56;100.00;101643.72;5203038;28;20041;-78
2021/11/10 06:49:32;;;;;;;7.60;3.88;;;;;;;1.77;100.00;101646.66;5200159;28;20584;-78
2021/11/10 06:52:03;;;;;;;8.00;3.90;;;;;;;1.80;100.00;101640.69;5196923;28;20036;-79
2021/11/10 06:54:33;;;;;;;7.47;3.80;;;;;;;1.80;100.00;101647.59;5200169;28;20088;-79
2021/11/10 06:57:03;;;;;;;8.07;4.25;;;;;;;1.53;100.00;101631.66;5203789;28;20088;-78
2021/11/10 06:59:34;;;;;;;10.27;5.07;;;;;;;1.70;100.00;101635.38;5204340;28;20057;-79
2021/11/10 07:02:04;;;;;;;9.43;4.75;;;;;;;1.76;100.00;101640.63;5203283;28;20510;-78
2021/11/10 07:04:36;;;;;;;9.60;4.90;;;;;;;1.72;100.00;101628.53;5206779;28;20033;-78
2021/11/10 07:07:06;;;;;;;9.75;4.85;;;;;;;1.73;100.00;101635.41;5198818;28;20293;-79
2021/11/10 07:09:36;;;;;;;9.23;4.63;;;;;;;2.00;100.00;101646.19;5203092;28;20025;-78
2021/11/10 07:12:07;;;;;;;9.52;4.68;;;;;;;1.79;100.00;101654.44;5199074;28;20251;-78
2021/11/10 07:14:38;;;;;;;8.13;4.70;;;;;;;2.02;100.00;101660.81;5198877;28;20033;-78
2021/11/10 07:17:08;;;;;;;10.27;4.68;;;;;;;2.10;100.00;101658.38;5199936;28;20113;-79
2021/11/10 07:19:38;;;;;;;10.85;4.97;;;;;;;2.16;100.00;101656.75;5200546;28;20439;-79
2021/11/10 07:22:09;;;;;;;8.45;5.00;;;;;;;2.14;100.00;101662.75;5203064;28;20557;-78
2021/11/10 07:24:39;;;;;;;10.65;5.15;;;;;;;2.13;100.00;101655.84;5198724;28;20045;-78
2021/11/10 07:27:09;;;;;;;11.75;5.43;;;;;;;2.13;100.00;101650.69;5200565;28;20025;-78
2021/11/10 07:29:40;;;;;;;13.07;6.28;;;;;;;2.10;100.00;101666.09;5198277;28;20159;-78
2021/11/10 07:32:10;;;;;;;10.40;5.38;;;;;;;2.29;100.00;101665.53;5199583;28;20030;-78
2021/11/10 07:34:40;;;;;;;9.57;4.70;;;;;;;2.49;100.00;101669.28;5202786;28;20753;-78
2021/11/10 07:37:11;;;;;;;10.50;5.18;;;;;;;2.30;100.00;101662.13;5201678;28;20030;-78
2021/11/10 07:39:44;;;;;;;11.48;4.88;;;;;;;2.35;100.00;101671.66;5205218;28;20033;-79
2021/11/10 07:42:14;;;;;;;7.68;4.57;;;;;;;2.39;100.00;101663.13;5202937;28;20036;-79
2021/11/10 07:44:44;;;;;;;8.98;4.40;;;;;;;2.47;100.00;101666.69;5199398;28;20029;-80
2021/11/10 07:47:18;;;;;;;9.50;5.00;;;;;;;2.51;100.00;101665.03;5204433;28;20072;-78
2021/11/10 07:49:48;;;;;;;10.32;4.55;;;;;;;2.73;100.00;101667.94;5203645;28;20030;-79
2021/11/10 07:52:19;;;;;;;10.18;4.93;;;;;;;2.66;100.00;101680.72;5205669;28;20108;-80
2021/11/10 07:54:49;;;;;;;7.88;4.05;;;;;;;2.51;100.00;101673.59;5204008;28;20033;-79
2021/11/10 07:57:19;;;;;;;9.98;4.28;;;;;;;2.72;100.00;101660.16;5204836;28;20118;-78
2021/11/10 07:59:50;;;;;;;8.18;4.82;;;;;;;2.62;100.00;101659.16;5198273;28;20021;-78
2021/11/10 08:02:21;;;;;;;10.05;5.15;;;;;;;2.78;100.00;101663.69;5202640;28;20030;-76
2021/11/10 08:04:52;;;;;;;10.13;4.82;;;;;;;2.67;100.00;101662.66;5200477;28;20026;-79
2021/11/10 08:07:22;;;;;;;9.88;4.63;;;;;;;2.87;100.00;101658.63;5203637;28;20017;-79
2021/11/10 08:09:52;;;;;;;10.82;5.63;;;;;;;2.66;100.00;101657.50;5202006;28;20029;-78
2021/11/10 08:12:23;;;;;;;9.20;4.93;;;;;;;2.87;100.00;101658.63;5202856;28;20032;-78
2021/11/10 08:14:53;;;;;;;9.20;4.70;;;;;;;2.96;100.00;101657.88;5196604;28;20088;-79
2021/11/10 08:17:24;;;;;;;12.10;5.60;;;;;;;3.16;100.00;101662.44;5200430;28;20022;-79
2021/11/10 08:19:55;;;;;;;9.98;5.50;;;;;;;3.29;100.00;101661.72;5201049;28;20093;-79
2021/11/10 08:22:25;;;;;;;10.30;5.22;;;;;;;3.47;100.00;101659.34;5203050;28;20057;-80
2021/11/10 08:24:56;;;;;;;9.73;5.22;;;;;;;3.72;100.00;101661.28;5202040;28;20022;-80
2021/11/10 08:27:26;;;;;;;10.32;5.10;;;;;;;3.98;100.00;101652.06;5202972;28;20442;-79
2021/11/10 08:29:57;;;;;;;12.50;5.25;;;;;;;4.11;100.00;101644.41;5198670;28;20033;-79
2021/11/10 08:32:27;;;;;;;14.63;5.40;;;;;;;4.10;100.00;101644.41;5205157;28;20086;-78
2021/11/10 08:34:57;;;;;;;9.93;4.82;;;;;;;3.84;100.00;101657.13;5203064;28;20026;-78
2021/11/10 08:37:28;;;;;;;8.02;4.97;;;;;;;4.01;100.00;101660.72;5205444;28;20026;-80
2021/11/10 08:39:59;;;;;;;11.63;5.18;;;;;;;3.89;100.00;101651.97;5204635;28;20026;-78
2021/11/10 08:42:35;;;;;;;9.45;5.05;;;;;;;3.88;100.00;101656.28;5203240;28;20037;-78
2021/11/10 08:45:09;;;;;;;10.68;5.25;;;;;;;3.99;100.00;101664.97;5189175;28;20034;-79
2021/11/10 08:47:44;;;;;;;8.52;4.78;;;;;;;4.04;100.00;101654.69;5198880;28;20033;-79
2021/11/10 08:50:17;;;;;;;9.68;5.53;;;;;;;3.67;100.00;101657.81;5200821;28;20025;-79
2021/11/10 08:52:49;;;;;;;10.60;5.05;;;;;;;3.78;100.00;101664.81;5199302;28;20033;-78
2021/11/10 08:55:20;;;;;;;8.93;4.85;;;;;;;4.04;100.00;101665.03;5199798;28;20104;-78
2021/11/10 08:57:52;;;;;;;10.57;4.70;;;;;;;4.03;100.00;101659.00;5198778;28;20030;-79
2021/11/10 09:00:27;;;;;;;8.95;4.95;;;;;;;4.13;100.00;101663.38;5199404;28;20116;-78
2021/11/10 09:02:57;;;;;;;9.13;4.82;;;;;;;4.24;100.00;101669.50;5203681;28;20030;-79
2021/11/10 09:05:27;;;;;;;8.48;4.90;;;;;;;4.44;100.00;101652.41;5207284;28;20038;-78
2021/11/10 09:08:00;;;;;;;9.63;4.68;;;;;;;4.53;100.00;101641.22;5205911;28;20025;-79
2021/11/10 09:10:33;;;;;;;9.15;5.40;;;;;;;4.76;100.00;101635.31;5208824;28;20071;-80
2021/11/10 09:13:03;;;;;;;13.48;5.82;;;;;;;5.11;100.00;101638.91;5205469;28;20021;-79
2021/11/10 09:15:34;;;;;;;11.07;5.55;;;;;;;5.36;100.00;101635.50;5204964;28;20485;-79
2021/11/10 09:18:06;;;;;;;10.65;5.53;;;;;;;5.67;100.00;101638.19;5199600;28;20026;-79
2021/11/10 09:20:39;;;;;;;11.20;5.25;;;;;;;5.76;100.00;101629.56;5199398;28;20295;-79
2021/11/10 09:23:13;;;;;;;10.75;5.63;;;;;;;5.74;100.00;101628.69;5211002;28;20029;-79
2021/11/10 09:25:44;;;;;;;9.07;5.20;;;;;;;6.00;100.00;101622.69;5202531;28;20049;-78
2021/11/10 09:28:19;;;;;;;13.43;5.03;;;;;;;6.21;100.00;101617.47;5199809;28;20434;-78
2021/11/10 09:30:52;;;;;;;10.23;5.07;;;;;;;6.31;100.00;101629.56;5198751;28;20053;-77
2021/11/10 09:33:23;;;;;;;9.75;5.38;;;;;;;6.58;100.00;101626.06;5197445;28;20397;-78
2021/11/10 09:35:54;;;;;;;9.23;5.30;;;;;;;7.08;100.00;101627.56;5203120;28;20509;-78
2021/11/10 09:38:25;;;;;;;8.90;5.30;;;;;;;7.04;100.00;101635.38;5196972;28;20073;-78
2021/11/10 09:40:59;;;;;;;7.75;4.63;;;;;;;7.55;100.00;101636.00;5201366;28;20025;-78
2021/11/10 09:43:33;;;;;;;7.55;4.63;;;;;;;7.37;100.00;101633.50;5199729;28;20449;-78
2021/11/10 09:46:05;;;;;;;8.25;5.10;;;;;;;7.54;100.00;101629.91;5198294;28;20085;-79
2021/11/10 09:48:36;;;;;;;10.00;5.25;;;;;;;7.55;100.00;101639.44;5196658;28;20572;-78
2021/11/10 09:51:08;;;;;;;10.30;5.15;;;;;;;7.58;100.00;101636.84;5198716;28;20022;-77
2021/11/10 09:53:39;;;;;;;9.50;4.65;;;;;;;7.80;100.00;101640.13;5196345;28;20054;-79
2021/11/10 09:56:09;;;;;;;7.63;4.30;;;;;;;7.78;100.00;101649.69;5203718;28;20033;-78
2021/11/10 09:58:42;;;;;;;12.15;5.10;;;;;;;7.75;100.00;101645.41;5556661;22;20009;-81
2021/11/10 10:01:12;;;;;;;8.75;4.20;;;;;;;7.60;100.00;101640.28;5157057;28;20048;-81
2021/11/10 10:03:45;;;;;;;7.32;4.35;;;;;;;7.36;100.00;101645.63;5161845;28;20463;-81
2021/11/10 10:06:16;;;;;;;9.02;4.53;;;;;;;7.15;100.00;101638.81;5155848;28;20115;-81
2021/11/10 10:08:46;;;;;;;7.00;4.40;;;;;;;7.30;100.00;101631.78;5157347;28;20030;-81
2021/11/10 10:11:17;;;;;;;9.40;4.88;;;;;;;7.39;100.00;101634.34;5173864;28;20038;-81
2021/11/10 10:13:48;;;;;;;9.40;4.90;;;;;;;7.49;100.00;101626.47;5161646;28;20026;-81
2021/11/10 10:16:24;;;;;;;10.30;4.93;;;;;;;7.62;100.00;101629.84;5162167;28;20027;-82
2021/11/10 10:19:14;;;;;;;8.18;4.65;;;;;;;7.88;100.00;101626.19;5164652;28;20030;-81
2021/11/10 10:21:56;;;;;;;9.90;5.10;;;;;;;7.64;100.00;101621.19;5163108;28;20070;-82
2021/11/10 10:24:27;;;;;;;9.82;5.07;;;;;;;7.93;100.00;101629.63;5178681;28;20011;-81
2021/11/10 10:26:57;;;;;;;8.60;4.70;;;;;;;8.25;100.00;101624.19;5163312;28;20038;-81
2021/11/10 10:29:27;;;;;;;8.48;4.75;;;;;;;8.48;100.00;101628.28;5162093;28;20030;-81
2021/11/10 10:32:02;;;;;;;9.93;4.32;;;;;;;8.48;100.00;101623.06;5163622;28;20026;-82
2021/11/10 10:34:32;;;;;;;9.38;4.47;;;;;;;8.56;100.00;101615.19;5181330;28;20022;-81
2021/11/10 10:37:02;;;;;;;8.52;4.30;;;;;;;8.47;100.00;101612.66;5159998;28;20044;-81
2021/11/10 10:39:33;;;;;;;9.00;4.13;;;;;;;8.69;100.00;101614.19;5151344;28;20488;-82
2021/11/10 10:42:12;;;;;;;9.55;4.40;;;;;;;8.79;100.00;101601.00;5172431;28;20038;-81
2021/11/10 10:44:44;;;;;;;8.32;4.32;;;;;;;8.95;100.00;101607.78;5164905;28;20076;-82
2021/11/10 10:47:14;;;;;;;8.55;4.53;;;;;;;9.05;100.00;101604.13;5182923;28;20034;-81
2021/11/10 10:49:44;;;;;;;7.63;4.00;;;;;;;9.33;100.00;101608.97;5182483;28;20022;-82
2021/11/10 10:52:18;;;;;;;7.25;4.05;;;;;;;9.19;100.00;101599.59;5181826;28;20127;-82
2021/11/10 10:54:50;;;;;;;8.48;3.70;;;;;;;9.32;100.00;101604.63;5163847;28;20089;-82
2021/11/10 10:57:22;;;;;;;9.80;4.15;;;;;;;9.50;100.00;101598.31;5162275;28;20041;-82
2021/11/10 11:00:08;;;;;;;10.10;3.80;;;;;;;9.47;97.64;101598.34;5181162;28;20014;-82
2021/11/10 11:02:38;;;;;;;7.13;3.40;;;;;;;9.38;95.09;101598.47;5179424;28;20030;-82
2021/11/10 11:05:08;;;;;;;6.28;2.90;;;;;;;9.68;93.94;101591.03;5161878;28;20060;-82
2021/11/10 11:07:39;;;;;;;7.32;3.28;;;;;;;9.97;94.08;101588.81;5180137;28;20027;-82
2021/11/10 11:10:11;;;;;;;7.78;3.30;;;;;;;9.95;93.03;101597.56;5163217;28;20022;-82
2021/11/10 11:12:53;;;;;;;6.25;3.40;;;;;;;10.21;92.16;101596.28;5178141;28;20033;-82
2021/11/10 11:15:34;;;;;;;5.85;3.00;;;;;;;10.00;91.71;101591.38;5163334;28;20029;-82
2021/11/10 11:18:04;;;;;;;7.28;2.95;;;;;;;9.69;91.61;101590.16;5180644;28;20034;-82
2021/11/10 11:20:35;;;;;;;6.82;2.97;;;;;;;9.68;93.08;101588.41;5163995;28;20018;-82
2021/11/10 11:23:06;;;;;;;6.38;3.20;;;;;;;9.69;94.27;101579.69;5161112;28;20022;-82
2021/11/10 11:25:40;;;;;;;7.95;3.67;;;;;;;9.69;93.63;101581.47;5163100;28;20026;-82
2021/11/10 11:28:16;;;;;;;12.60;3.55;;;;;;;9.78;91.24;101563.03;5178456;28;20045;-82
2021/11/10 11:30:52;;;;;;;8.55;3.15;;;;;;;9.51;92.17;101566.09;5177125;28;20038;-82
2021/11/10 11:33:25;;;;;;;8.18;3.47;;;;;;;9.53;92.49;101561.72;5170338;28;20018;-82
2021/11/10 11:35:59;;;;;;;7.97;3.35;;;;;;;9.43;93.24;101562.72;5168143;28;20039;-82
2021/11/10 11:38:32;;;;;;;7.78;3.65;;;;;;;9.42;92.66;101558.41;5169300;28;20026;-82
2021/11/10 11:41:03;;;;;;;6.20;2.90;;;;;;;9.48;92.73;101563.53;5173467;28;20027;-82
2021/11/10 11:43:33;;;;;;;5.60;3.05;;;;;;;9.58;93.89;101555.53;5170679;28;20026;-82